Mystic, Iowa
Current Conditions -  °F | °C
As of 2:10 PM on Sunday 25 Jan 2015 (Local Time) from KTVK Reporting Station
Overcast Overcast  
Wind Chill: 23°   Ceiling: 900
Heat Index: 32°   Visibility: 10mi
Dew Point: 32°   Wind: 12mph
Humidity: 100%   Direction: 360°N
Pressure: 29.89"   Gusts: 23mph
Location:  40.78°N, 92.94°W
Report Text: KTVK 252010Z AUTO 36010G20KT 10SM OVC009 00/00 A2989 RMK AO2
Loading
Personal Weather Stations






























Interactive Weather Map New forecast layout! Learn more

10-Day Weather Forecast

Advertisements
Track Severe Weather on mobile